createdAt,value
2023-10-08T00:00:57.209Z,93004.75
2023-10-08T00:03:24.069Z,93013.06
2023-10-08T00:05:51.133Z,93011.56
2023-10-08T00:08:18.342Z,93025.41
2023-10-08T00:10:46.290Z,93028.19
2023-10-08T00:13:14.344Z,93028.19
2023-10-08T00:15:58.888Z,93026.72
2023-10-08T00:18:25.439Z,93032.25
2023-10-08T00:21:24.574Z,93024.50
2023-10-08T00:23:53.534Z,93031.50
2023-10-08T00:26:28.555Z,93032.81
2023-10-08T00:28:57.710Z,93034.09
2023-10-08T00:31:39.267Z,93025.03
2023-10-08T00:34:15.358Z,93024.50
2023-10-08T00:36:44.835Z,93026.31
2023-10-08T00:39:15.782Z,93020.78
2023-10-08T00:41:44.338Z,93019.31
2023-10-08T00:44:17.223Z,93022.28
2023-10-08T00:46:49.204Z,93020.78
2023-10-08T00:49:23.583Z,93012.47
2023-10-08T00:52:07.428Z,93009.69
2023-10-08T00:54:34.307Z,93012.47
2023-10-08T00:57:05.345Z,93015.78
2023-10-08T00:59:45.694Z,93001.94
2023-10-08T01:02:16.031Z,93007.47
2023-10-08T01:04:45.318Z,93007.47
2023-10-08T01:07:16.792Z,93006.72
2023-10-08T01:09:44.367Z,93006.00
2023-10-08T01:12:22.398Z,93003.97
2023-10-08T01:14:54.849Z,93005.47
2023-10-08T01:17:26.721Z,93004.91
2023-10-08T01:20:13.307Z,93009.69
2023-10-08T01:22:41.633Z,93013.97
2023-10-08T01:25:11.445Z,93007.13
2023-10-08T01:27:38.832Z,93013.41
2023-10-08T01:30:16.325Z,93012.66
2023-10-08T01:32:44.730Z,93011.19
2023-10-08T01:35:37.914Z,92999.38
2023-10-08T01:38:04.943Z,93006.94
2023-10-08T01:40:32.011Z,93008.22
2023-10-08T01:43:01.412Z,93009.50
2023-10-08T01:45:27.938Z,93008.22
2023-10-08T01:47:56.367Z,93011.00
2023-10-08T01:50:23.393Z,93016.34
2023-10-08T01:52:50.530Z,93011.00
2023-10-08T01:55:20.839Z,93008.78
2023-10-08T01:57:48.211Z,93003.97
2023-10-08T02:00:15.921Z,92996.75
2023-10-08T02:02:42.683Z,92998.25
2023-10-08T02:05:09.486Z,93002.28
2023-10-08T02:07:36.095Z,93003.03
2023-10-08T02:10:02.788Z,93002.28
2023-10-08T02:12:29.498Z,93000.81
2023-10-08T02:14:56.073Z,93002.28
2023-10-08T02:17:23.932Z,93003.78
2023-10-08T02:19:50.663Z,93001.53
2023-10-08T02:22:17.224Z,92996.75
2023-10-08T02:24:44.238Z,92995.28
2023-10-08T02:27:11.649Z,92999.53
2023-10-08T02:29:38.316Z,92995.28
2023-10-08T02:32:05.978Z,92995.28
2023-10-08T02:34:32.504Z,92995.28
2023-10-08T02:36:59.046Z,92991.97
2023-10-08T02:39:28.792Z,92997.50
2023-10-08T02:41:58.062Z,92992.72
2023-10-08T02:44:25.016Z,92989.75
2023-10-08T02:46:52.578Z,92991.41
2023-10-08T02:49:24.180Z,92990.09
2023-10-08T02:51:55.920Z,92986.06
2023-10-08T02:54:25.858Z,92984.41
2023-10-08T02:56:56.572Z,92977.56
2023-10-08T02:59:23.602Z,92981.63
2023-10-08T03:01:51.193Z,92978.66
2023-10-08T03:04:20.641Z,92974.59
2023-10-08T03:06:50.472Z,92974.59
2023-10-08T03:09:27.673Z,92973.84
2023-10-08T03:11:54.818Z,92973.13
2023-10-08T03:14:24.334Z,92971.63
2023-10-08T03:16:54.539Z,92972.38
2023-10-08T03:19:23.381Z,92971.63
2023-10-08T03:21:57.647Z,92978.47
2023-10-08T03:24:30.627Z,92970.16
2023-10-08T03:27:07.838Z,92978.47
2023-10-08T03:29:41.851Z,92968.66
2023-10-08T03:32:19.073Z,92971.44
2023-10-08T03:34:47.655Z,92976.25
2023-10-08T03:37:23.386Z,92976.97
2023-10-08T03:40:02.119Z,92974.19
2023-10-08T03:42:35.978Z,92978.25
2023-10-08T03:45:11.452Z,92978.25
2023-10-08T03:47:39.410Z,92983.06
2023-10-08T03:50:08.812Z,92981.78
2023-10-08T03:52:38.231Z,92983.81
2023-10-08T03:55:19.659Z,92978.25
2023-10-08T03:57:58.139Z,92985.09
2023-10-08T04:00:32.543Z,92983.81
2023-10-08T04:03:06.852Z,92972.72
2023-10-08T04:05:34.402Z,92979.00
2023-10-08T04:08:00.968Z,92976.97
2023-10-08T04:10:52.822Z,92981.22
2023-10-08T04:13:19.638Z,92974.19
2023-10-08T04:15:46.201Z,92981.22
2023-10-08T04:18:14.900Z,92981.22
2023-10-08T04:21:00.304Z,92974.19
2023-10-08T04:23:27.386Z,92976.25
2023-10-08T04:25:57.099Z,92978.25
2023-10-08T04:28:29.654Z,92974.03
2023-10-08T04:31:02.191Z,92978.25
2023-10-08T04:33:35.225Z,92982.34
2023-10-08T04:36:02.877Z,92975.28
2023-10-08T04:38:30.127Z,92980.84
2023-10-08T04:41:03.026Z,92979.38
2023-10-08T04:43:31.811Z,92980.84
2023-10-08T04:45:59.970Z,92976.59
2023-10-08T04:48:30.884Z,92973.06
2023-10-08T04:51:00.360Z,92972.31
2023-10-08T04:53:38.241Z,92970.09
2023-10-08T04:56:07.721Z,92972.31
2023-10-08T04:58:37.619Z,92976.41
2023-10-08T05:01:30.759Z,92973.63
2023-10-08T05:03:58.340Z,92976.41
2023-10-08T05:06:38.803Z,92974.91
2023-10-08T05:09:13.004Z,92981.94
2023-10-08T05:11:51.920Z,92980.44
2023-10-08T05:14:35.937Z,92976.19
2023-10-08T05:17:12.749Z,92976.19
2023-10-08T05:19:41.158Z,92967.88
2023-10-08T05:22:42.972Z,92969.16
2023-10-08T05:25:29.933Z,92974.19
2023-10-08T05:27:56.490Z,92974.91
2023-10-08T05:30:54.416Z,92974.91
2023-10-08T05:33:29.435Z,92977.66
2023-10-08T05:36:03.690Z,92981.94
2023-10-08T05:38:31.812Z,92980.44
2023-10-08T05:40:59.792Z,92981.94
2023-10-08T05:43:39.486Z,92983.97
2023-10-08T05:46:25.866Z,92988.03
2023-10-08T05:49:09.708Z,92993.38
2023-10-08T05:51:47.753Z,92992.63
2023-10-08T05:54:28.453Z,92993.38
2023-10-08T05:57:11.082Z,92987.06
2023-10-08T05:59:53.767Z,92998.16
2023-10-08T06:02:47.416Z,93009.22
2023-10-08T06:05:14.683Z,93002.41
2023-10-08T06:07:55.313Z,93003.16
2023-10-08T06:10:31.311Z,93005.16
2023-10-08T06:13:17.899Z,93005.16
2023-10-08T06:15:47.540Z,93008.69
2023-10-08T06:18:15.759Z,93007.75
2023-10-08T06:20:46.310Z,93009.03
2023-10-08T06:23:20.210Z,93004.03
2023-10-08T06:25:48.234Z,93013.31
2023-10-08T06:28:16.956Z,93013.31
2023-10-08T06:30:46.607Z,93013.31
2023-10-08T06:33:15.019Z,93016.59
2023-10-08T06:35:45.730Z,93017.34
2023-10-08T06:38:16.128Z,93020.31
2023-10-08T06:40:44.162Z,93015.31
2023-10-08T06:43:18.139Z,93017.34
2023-10-08T06:45:47.745Z,93028.41
2023-10-08T06:48:21.590Z,93028.41
2023-10-08T06:50:50.099Z,93034.72
2023-10-08T06:53:19.345Z,93034.16
2023-10-08T06:55:49.118Z,93027.31
2023-10-08T06:58:15.978Z,93023.28
2023-10-08T07:00:51.241Z,93030.28
2023-10-08T07:03:21.878Z,93034.34
2023-10-08T07:06:00.715Z,93030.28
2023-10-08T07:08:36.517Z,93040.66
2023-10-08T07:11:07.845Z,93030.28
2023-10-08T07:13:37.134Z,93038.59
2023-10-08T07:16:05.454Z,93033.59
2023-10-08T07:18:35.178Z,93039.91
2023-10-08T07:21:13.021Z,93035.81
2023-10-08T07:23:57.499Z,93044.13
2023-10-08T07:26:26.694Z,93040.66
2023-10-08T07:28:54.267Z,93032.13
2023-10-08T07:31:23.628Z,93045.44
2023-10-08T07:33:57.603Z,93041.91
2023-10-08T07:36:27.910Z,93043.94
2023-10-08T07:38:55.093Z,93048.94
2023-10-08T07:41:21.798Z,93055.22
2023-10-08T07:43:59.539Z,93053.94
2023-10-08T07:46:27.618Z,93055.97
2023-10-08T07:48:55.443Z,93046.91
2023-10-08T07:51:23.268Z,93056.50
2023-10-08T07:53:57.328Z,93063.53
2023-10-08T07:56:25.372Z,93050.97
2023-10-08T07:58:58.019Z,93046.91
2023-10-08T08:01:26.327Z,93045.44
2023-10-08T08:03:53.178Z,93034.34
2023-10-08T08:06:19.855Z,93037.13
2023-10-08T08:08:46.476Z,93041.38
2023-10-08T08:11:13.134Z,93038.06
2023-10-08T08:13:45.930Z,93034.75
2023-10-08T08:16:21.177Z,93038.25
2023-10-08T08:18:58.586Z,93035.47
2023-10-08T08:21:25.161Z,93041.78
2023-10-08T08:23:51.807Z,93037.72
2023-10-08T08:26:31.138Z,93032.19
2023-10-08T08:29:01.099Z,93027.38
2023-10-08T08:31:28.499Z,93033.66
2023-10-08T08:33:57.670Z,93037.72
2023-10-08T08:36:25.190Z,93032.19
2023-10-08T08:38:52.378Z,93026.66
2023-10-08T08:41:19.240Z,93030.69
2023-10-08T08:43:50.789Z,93032.19
2023-10-08T08:46:17.481Z,93028.88
2023-10-08T08:48:48.080Z,93031.09
2023-10-08T08:51:14.736Z,93026.66
2023-10-08T08:53:42.556Z,93029.59
2023-10-08T08:56:10.858Z,93033.66
2023-10-08T08:58:39.183Z,93031.09
2023-10-08T09:01:10.660Z,93029.59
2023-10-08T09:03:38.533Z,93023.88
2023-10-08T09:06:05.822Z,93014.28
2023-10-08T09:08:36.936Z,93015.56
2023-10-08T09:11:05.405Z,93025.16
2023-10-08T09:13:34.118Z,93014.06
2023-10-08T09:16:14.949Z,93010.03
2023-10-08T09:18:51.348Z,93008.72
2023-10-08T09:21:23.410Z,93011.50
2023-10-08T09:23:51.823Z,93001.72
2023-10-08T09:26:19.825Z,92998.94
2023-10-08T09:28:50.685Z,92996.19
2023-10-08T09:31:18.731Z,92991.91
2023-10-08T09:33:55.772Z,92990.44
2023-10-08T09:36:32.388Z,92985.63
2023-10-08T09:39:01.931Z,92974.53
2023-10-08T09:41:32.927Z,92980.28
2023-10-08T09:44:00.249Z,92976.25
2023-10-08T09:46:34.594Z,92966.84
2023-10-08T09:49:02.725Z,92973.31
2023-10-08T09:51:33.958Z,92967.94
2023-10-08T09:54:15.298Z,92963.91
2023-10-08T09:56:44.456Z,92965.38
2023-10-08T09:59:11.699Z,92962.06
2023-10-08T10:01:43.741Z,92958.75
2023-10-08T10:04:12.405Z,92942.84
2023-10-08T10:06:41.089Z,92950.63
2023-10-08T10:09:16.995Z,92954.13
2023-10-08T10:11:54.441Z,92952.13
2023-10-08T10:14:25.977Z,92948.81
2023-10-08T10:17:28.005Z,92951.03
2023-10-08T10:20:04.499Z,92935.16
2023-10-08T10:22:35.462Z,92935.91
2023-10-08T10:25:16.162Z,92948.47
2023-10-08T10:28:08.950Z,92935.91
2023-10-08T10:30:35.742Z,92926.28
2023-10-08T10:33:03.188Z,92944.41
2023-10-08T10:35:30.277Z,92936.81
2023-10-08T10:38:04.674Z,92932.03
2023-10-08T10:40:40.722Z,92936.47
2023-10-08T10:43:08.317Z,92935.19
2023-10-08T10:45:37.974Z,92926.31
2023-10-08T10:48:37.245Z,92921.34
2023-10-08T10:51:07.112Z,92938.16
2023-10-08T10:53:57.901Z,92933.88
2023-10-08T10:56:40.991Z,92931.13
2023-10-08T10:59:28.040Z,92922.81
2023-10-08T11:02:07.618Z,92931.88
2023-10-08T11:04:46.631Z,92927.78
2023-10-08T11:07:13.621Z,92934.09
2023-10-08T11:09:40.356Z,92928.53
2023-10-08T11:12:12.606Z,92918.94
2023-10-08T11:14:43.174Z,92926.72
2023-10-08T11:17:18.528Z,92910.81
2023-10-08T11:19:49.020Z,92912.31
2023-10-08T11:22:19.684Z,92915.25
2023-10-08T11:24:50.036Z,92923.03
2023-10-08T11:27:37.082Z,92918.22
2023-10-08T11:30:12.057Z,92918.41
2023-10-08T11:32:39.896Z,92900.50
2023-10-08T11:35:17.288Z,92906.78
2023-10-08T11:37:52.292Z,92897.72
2023-10-08T11:40:45.152Z,92902.72
2023-10-08T11:43:17.019Z,92897.16
2023-10-08T11:45:49.458Z,92898.63
2023-10-08T11:48:23.266Z,92884.06
2023-10-08T11:50:51.987Z,92896.41
2023-10-08T11:53:20.375Z,92886.06
2023-10-08T11:55:49.199Z,92879.78
2023-10-08T11:58:19.104Z,92868.69
2023-10-08T12:00:47.103Z,92874.25
2023-10-08T12:03:20.666Z,92866.13
2023-10-08T12:05:49.151Z,92869.09
2023-10-08T12:08:17.427Z,92872.03
2023-10-08T12:10:48.337Z,92879.06
2023-10-08T12:13:19.331Z,92874.25
2023-10-08T12:15:48.530Z,92870.94
2023-10-08T12:18:28.005Z,92857.06
2023-10-08T12:20:56.410Z,92850.25
2023-10-08T12:23:26.472Z,92842.28
2023-10-08T12:25:57.324Z,92841.00
2023-10-08T12:28:25.034Z,92837.69
2023-10-08T12:30:54.823Z,92834.34
2023-10-08T12:33:21.720Z,92826.03
2023-10-08T12:35:48.744Z,92835.84
2023-10-08T12:38:16.050Z,92834.34
2023-10-08T12:40:48.847Z,92824.75
2023-10-08T12:43:20.445Z,92836.56
2023-10-08T12:45:53.324Z,92840.09
2023-10-08T12:48:29.166Z,92842.09
2023-10-08T12:50:59.461Z,92837.88
2023-10-08T12:53:37.412Z,92841.38
2023-10-08T12:56:08.555Z,92834.34
2023-10-08T12:58:45.730Z,92838.63
2023-10-08T13:01:12.637Z,92839.16
2023-10-08T13:03:43.057Z,92832.88
2023-10-08T13:06:22.848Z,92828.63
2023-10-08T13:08:54.122Z,92834.16
2023-10-08T13:11:23.651Z,92839.72
2023-10-08T13:13:54.832Z,92829.91
2023-10-08T13:16:24.542Z,92841.00
2023-10-08T13:18:52.124Z,92846.56
2023-10-08T13:21:25.951Z,92846.56
2023-10-08T13:23:53.706Z,92856.91
2023-10-08T13:26:23.950Z,92852.84
2023-10-08T13:28:50.616Z,92851.34
2023-10-08T13:31:18.869Z,92857.66
2023-10-08T13:33:50.017Z,92867.97
2023-10-08T13:36:19.176Z,92867.25
2023-10-08T13:38:50.063Z,92867.25
2023-10-08T13:41:17.273Z,92867.25
2023-10-08T13:43:47.883Z,92867.25
2023-10-08T13:46:19.278Z,92872.97
2023-10-08T13:48:49.388Z,92872.97
2023-10-08T13:51:27.237Z,92877.25
2023-10-08T13:54:01.102Z,92875.94
2023-10-08T13:56:31.221Z,92873.91
2023-10-08T13:59:05.257Z,92869.84
2023-10-08T14:01:35.130Z,92874.09
2023-10-08T14:04:09.251Z,92865.03
2023-10-08T14:06:38.062Z,92877.59
2023-10-08T14:09:13.568Z,92874.09
2023-10-08T14:11:40.345Z,92863.56
2023-10-08T14:14:12.673Z,92860.97
2023-10-08T14:16:43.266Z,92859.50
2023-10-08T14:19:14.707Z,92852.47
2023-10-08T14:21:54.859Z,92858.03
2023-10-08T14:24:21.833Z,92849.72
2023-10-08T14:26:55.712Z,92848.41
2023-10-08T14:29:25.670Z,92855.41
2023-10-08T14:31:55.614Z,92855.41
2023-10-08T14:34:42.201Z,92859.50
2023-10-08T14:37:27.683Z,92853.94
2023-10-08T14:40:13.031Z,92852.47
2023-10-08T14:42:56.332Z,92855.25
2023-10-08T14:45:27.964Z,92850.97
2023-10-08T14:47:56.447Z,92845.44
2023-10-08T14:50:24.660Z,92845.44
2023-10-08T14:52:51.420Z,92843.97
2023-10-08T14:55:18.093Z,92846.00
2023-10-08T14:57:44.733Z,92849.53
2023-10-08T15:00:11.970Z,92843.97
2023-10-08T15:02:39.899Z,92843.97
2023-10-08T15:05:07.341Z,92850.25
2023-10-08T15:07:37.415Z,92857.28
2023-10-08T15:10:04.368Z,92853.19
2023-10-08T15:12:35.954Z,92858.19
2023-10-08T15:15:13.751Z,92863.72
2023-10-08T15:17:44.954Z,92860.97
2023-10-08T15:20:15.704Z,92865.41
2023-10-08T15:22:45.951Z,92859.88
2023-10-08T15:25:14.276Z,92864.09
2023-10-08T15:27:42.383Z,92869.66
2023-10-08T15:30:13.184Z,92865.41
2023-10-08T15:32:50.316Z,92865.41
2023-10-08T15:35:25.416Z,92864.66
2023-10-08T15:37:53.424Z,92870.97
2023-10-08T15:40:21.065Z,92868.00
2023-10-08T15:42:52.623Z,92861.72
2023-10-08T15:45:23.373Z,92862.44
2023-10-08T15:47:51.269Z,92860.97
2023-10-08T15:50:22.487Z,92860.97
2023-10-08T15:52:50.683Z,92859.50
2023-10-08T15:55:19.366Z,92862.81
2023-10-08T15:57:46.025Z,92855.25
2023-10-08T16:00:13.157Z,92861.50
2023-10-08T16:02:39.898Z,92865.03
2023-10-08T16:05:09.227Z,92863.56
2023-10-08T16:07:36.244Z,92863.56
2023-10-08T16:10:03.333Z,92875.38
2023-10-08T16:12:30.031Z,92874.66
2023-10-08T16:14:56.642Z,92870.38
2023-10-08T16:17:24.837Z,92867.63
2023-10-08T16:19:52.567Z,92868.94
2023-10-08T16:22:19.535Z,92874.47
2023-10-08T16:24:46.118Z,92877.25
2023-10-08T16:27:12.726Z,92875.75
2023-10-08T16:29:39.331Z,92882.03
2023-10-08T16:32:08.082Z,92873.91
2023-10-08T16:34:38.121Z,92900.88
2023-10-08T16:37:04.871Z,92885.38
2023-10-08T16:39:32.226Z,92902.38
2023-10-08T16:41:59.208Z,92899.41
2023-10-08T16:44:25.954Z,92894.22
2023-10-08T16:46:52.908Z,92894.06
2023-10-08T16:49:22.043Z,92882.03
2023-10-08T16:51:48.974Z,92899.78
2023-10-08T16:54:16.881Z,92889.59
2023-10-08T16:56:45.292Z,92901.63
2023-10-08T16:59:15.563Z,92883.16
2023-10-08T17:01:45.387Z,92894.59
2023-10-08T17:04:13.810Z,92899.22
2023-10-08T17:06:41.054Z,92907.53
2023-10-08T17:09:15.717Z,92906.41
2023-10-08T17:11:50.303Z,92914.56
2023-10-08T17:14:19.110Z,92905.50
2023-10-08T17:16:46.346Z,92911.59
2023-10-08T17:19:13.322Z,92908.28
2023-10-08T17:21:40.577Z,92926.19
2023-10-08T17:24:10.806Z,92920.66
2023-10-08T17:26:38.798Z,92908.28
2023-10-08T17:29:09.346Z,92909.75
2023-10-08T17:31:38.192Z,92909.75
2023-10-08T17:34:07.036Z,92914.16
2023-10-08T17:36:35.243Z,92914.91
2023-10-08T17:39:10.010Z,92915.47
2023-10-08T17:41:37.376Z,92907.88
2023-10-08T17:44:05.039Z,92921.03
2023-10-08T17:46:31.975Z,92921.78
2023-10-08T17:48:59.308Z,92919.38
2023-10-08T17:51:26.343Z,92906.94
2023-10-08T17:53:53.305Z,92929.34
2023-10-08T17:56:19.992Z,92920.81
2023-10-08T17:58:47.352Z,92917.66
2023-10-08T18:01:15.414Z,92917.16
2023-10-08T18:03:45.594Z,92924.53
2023-10-08T18:06:15.662Z,92921.22
2023-10-08T18:08:50.736Z,92911.97
2023-10-08T18:11:23.758Z,92916.94
2023-10-08T18:13:51.481Z,92914.16
2023-10-08T18:16:18.874Z,92914.91
2023-10-08T18:18:46.442Z,92914.16
2023-10-08T18:21:17.905Z,92923.59
2023-10-08T18:23:47.921Z,92914.91
2023-10-08T18:26:16.324Z,92924.53
2023-10-08T18:28:45.053Z,92921.94
2023-10-08T18:31:13.442Z,92930.81
2023-10-08T18:33:42.278Z,92924.91
2023-10-08T18:36:11.046Z,92924.53
2023-10-08T18:38:40.515Z,92923.41
2023-10-08T18:41:10.370Z,92927.88
2023-10-08T18:43:37.524Z,92931.38
2023-10-08T18:46:15.318Z,92930.44
2023-10-08T18:48:42.955Z,92926.00
2023-10-08T18:51:12.212Z,92938.75
2023-10-08T18:53:41.866Z,92929.13
2023-10-08T18:56:12.140Z,92938.56
2023-10-08T18:58:40.006Z,92937.47
2023-10-08T19:01:08.222Z,92933.59
2023-10-08T19:03:37.827Z,92941.34
2023-10-08T19:06:07.071Z,92936.72
2023-10-08T19:08:37.321Z,92942.63
2023-10-08T19:11:09.021Z,92936.72
2023-10-08T19:13:43.581Z,92926.88
2023-10-08T19:16:12.167Z,92949.66
2023-10-08T19:18:42.688Z,92944.84
2023-10-08T19:21:15.760Z,92949.66
2023-10-08T19:23:42.451Z,92948.00
2023-10-08T19:26:09.117Z,92951.50
2023-10-08T19:28:36.592Z,92963.53
2023-10-08T19:31:09.290Z,92969.06
2023-10-08T19:33:36.315Z,92955.56
2023-10-08T19:36:04.487Z,92959.63
2023-10-08T19:38:31.370Z,92960.38
2023-10-08T19:40:58.650Z,92948.00
2023-10-08T19:43:25.275Z,92946.69
2023-10-08T19:45:52.245Z,92954.09
2023-10-08T19:48:19.513Z,92958.16
2023-10-08T19:50:47.841Z,92951.28
2023-10-08T19:53:15.952Z,92953.53
2023-10-08T19:55:50.523Z,92957.22
2023-10-08T19:58:17.688Z,92955.56
2023-10-08T20:00:48.724Z,92963.31
2023-10-08T20:03:15.913Z,92957.78
2023-10-08T20:05:44.081Z,92952.97
2023-10-08T20:08:14.151Z,92946.66
2023-10-08T20:10:42.138Z,92957.78
2023-10-08T20:13:10.549Z,92958.88
2023-10-08T20:15:38.547Z,92964.06
2023-10-08T20:18:09.045Z,92961.66
2023-10-08T20:20:37.270Z,92962.56
2023-10-08T20:23:06.567Z,92967.41
2023-10-08T20:25:38.931Z,92971.44
2023-10-08T20:28:07.141Z,92959.81
2023-10-08T20:30:37.190Z,92961.09
2023-10-08T20:33:11.122Z,92965.91
2023-10-08T20:35:44.328Z,92971.44
2023-10-08T20:38:14.398Z,92966.22
2023-10-08T20:40:43.910Z,92971.06
2023-10-08T20:43:11.765Z,92965.50
2023-10-08T20:45:40.437Z,92977.00
2023-10-08T20:48:13.240Z,92973.81
2023-10-08T20:50:40.002Z,92983.63
2023-10-08T20:53:06.674Z,92977.34
2023-10-08T20:55:36.033Z,92977.72
2023-10-08T20:58:03.010Z,92984.91
2023-10-08T21:00:35.962Z,92985.84
2023-10-08T21:03:09.322Z,92982.53
2023-10-08T21:05:39.476Z,92990.28
2023-10-08T21:08:09.747Z,92983.63
2023-10-08T21:13:09.620Z,92994.72
2023-10-08T21:15:37.372Z,92986.78
2023-10-08T21:18:08.440Z,92985.84
2023-10-08T21:20:35.229Z,92973.63
2023-10-08T21:23:07.888Z,92987.69
2023-10-08T21:25:34.852Z,92988.78
2023-10-08T21:28:02.215Z,92995.84
2023-10-08T21:30:29.498Z,92984.34
2023-10-08T21:32:57.448Z,92991.75
2023-10-08T21:35:24.644Z,92995.84
2023-10-08T21:37:52.445Z,92990.09
2023-10-08T21:40:21.616Z,92994.34
2023-10-08T21:42:52.860Z,92994.34
2023-10-08T21:45:20.453Z,92988.19
2023-10-08T21:47:48.680Z,92998.75
2023-10-08T21:50:17.736Z,92993.94
2023-10-08T21:52:48.510Z,92978.03
2023-10-08T21:55:19.551Z,92989.91
2023-10-08T21:57:48.714Z,92995.44
2023-10-08T22:00:22.467Z,92981.38
2023-10-08T22:02:58.160Z,92989.91
2023-10-08T22:05:30.669Z,92986.19
2023-10-08T22:08:04.809Z,92986.94
2023-10-08T22:10:34.839Z,92974.69
2023-10-08T22:13:05.131Z,92989.50
2023-10-08T22:15:31.884Z,92985.44
2023-10-08T22:18:03.096Z,92980.59
2023-10-08T22:20:39.537Z,92969.47
2023-10-08T22:23:16.706Z,92978.38
2023-10-08T22:25:48.373Z,92990.59
2023-10-08T22:28:21.669Z,92989.31
2023-10-08T22:30:51.565Z,92983.78
2023-10-08T22:33:27.618Z,92977.66
2023-10-08T22:35:59.038Z,92985.06
2023-10-08T22:38:30.404Z,92987.84
2023-10-08T22:40:57.334Z,92989.50
2023-10-08T22:43:24.372Z,92990.25
2023-10-08T22:45:52.277Z,92985.06
2023-10-08T22:48:36.923Z,92989.13
2023-10-08T22:51:10.890Z,92986.53
2023-10-08T22:53:44.445Z,92988.03
2023-10-08T22:56:12.071Z,92986.53
2023-10-08T22:58:40.429Z,92990.59
2023-10-08T23:01:16.021Z,92989.84
2023-10-08T23:03:47.549Z,92988.91
2023-10-08T23:06:16.353Z,92990.41
2023-10-08T23:08:44.374Z,92983.22
2023-10-08T23:11:16.085Z,92984.09
2023-10-08T23:13:43.986Z,92989.81
2023-10-08T23:16:15.807Z,92986.09
2023-10-08T23:18:44.295Z,92984.28
2023-10-08T23:21:12.905Z,92990.03
2023-10-08T23:23:40.285Z,92980.03
2023-10-08T23:26:11.326Z,92991.31
2023-10-08T23:28:39.130Z,92982.81
2023-10-08T23:31:11.807Z,92988.56
2023-10-08T23:33:48.146Z,92982.81
2023-10-08T23:36:17.243Z,92988.34
2023-10-08T23:38:53.598Z,92976.09
2023-10-08T23:41:24.942Z,92978.31
2023-10-08T23:43:57.516Z,92969.81
2023-10-08T23:46:33.176Z,92981.84
2023-10-08T23:49:15.953Z,92983.84
2023-10-08T23:51:43.381Z,92976.09
2023-10-08T23:54:15.812Z,92981.63
2023-10-08T23:56:46.463Z,92976.25
2023-10-08T23:59:18.193Z,92977.94
